Time;durP1;ratioP1;P1;durP2;ratioP2;P2;SDS_P1;SDS_P2;PMS_P1;PMS_P2;Temp;Humidity;BMP_temperature;BMP_pressure;BME280_temperature;BME280_humidity;BME280_pressure;Samples;Min_cycle;Max_cycle;Signal;HPM_P1;HPM_P2
2024/01/21 00:01:04;;;;;;;7.18;4.38;;;;;;;1.69;88.67;100936.84;4955719;29;20038;-40
2024/01/21 00:03:29;;;;;;;7.03;3.65;;;;;;;1.70;88.31;100935.91;4955959;29;20075;-40
2024/01/21 00:05:55;;;;;;;9.38;4.22;;;;;;;1.63;89.76;100935.53;4956198;29;20058;-42
2024/01/21 00:08:20;;;;;;;7.50;3.90;;;;;;;1.51;90.26;100929.44;4956216;29;20081;-42
2024/01/21 00:10:45;;;;;;;7.95;4.35;;;;;;;1.64;88.67;100931.13;4955844;29;20403;-43
2024/01/21 00:13:11;;;;;;;7.13;3.78;;;;;;;1.56;87.84;100935.19;4956136;29;20168;-41
2024/01/21 00:15:36;;;;;;;6.97;3.40;;;;;;;1.48;88.54;100944.56;4955872;29;20063;-41
2024/01/21 00:18:02;;;;;;;7.20;3.67;;;;;;;1.60;88.38;100938.41;4955485;29;20027;-41
2024/01/21 00:20:30;;;;;;;7.18;3.95;;;;;;;1.46;87.93;100936.81;4956001;29;20047;-41
2024/01/21 00:22:57;;;;;;;6.00;3.60;;;;;;;1.38;89.07;100946.22;4955607;29;20030;-41
2024/01/21 00:25:22;;;;;;;7.22;3.70;;;;;;;1.35;89.86;100937.63;4955669;29;20027;-41
2024/01/21 00:27:47;;;;;;;6.45;3.47;;;;;;;1.44;88.84;100946.56;4955586;29;20186;-41
2024/01/21 00:30:13;;;;;;;5.82;3.58;;;;;;;1.42;89.07;100942.41;4955649;29;20548;-41
2024/01/21 00:32:39;;;;;;;8.80;4.50;;;;;;;1.31;89.56;100954.56;4955754;29;20059;-41
2024/01/21 00:35:04;;;;;;;5.68;3.28;;;;;;;1.36;89.00;100947.16;4955600;29;20102;-41
2024/01/21 00:37:30;;;;;;;7.43;3.92;;;;;;;1.31;88.31;100943.19;4955321;29;20059;-41
2024/01/21 00:39:55;;;;;;;6.32;3.67;;;;;;;1.40;88.57;100958.25;4955389;29;20024;-41
2024/01/21 00:42:21;;;;;;;5.70;3.53;;;;;;;1.60;87.54;100958.53;4938113;29;20028;-41
2024/01/21 00:44:46;;;;;;;5.20;3.20;;;;;;;1.89;86.30;100965.06;4955117;29;20023;-41
2024/01/21 00:47:11;;;;;;;5.05;3.10;;;;;;;1.65;86.90;100962.50;4955159;29;20046;-40
2024/01/21 00:49:40;;;;;;;5.38;3.38;;;;;;;1.54;88.21;100972.97;4955223;29;20470;-40
2024/01/21 00:52:06;;;;;;;5.60;3.30;;;;;;;1.19;89.25;100965.09;4955140;29;20522;-41
2024/01/21 00:54:32;;;;;;;5.60;3.00;;;;;;;1.28;88.45;100972.28;4955211;29;20023;-43
2024/01/21 00:56:57;;;;;;;5.70;3.50;;;;;;;1.04;89.36;100970.50;4955130;29;20086;-41
2024/01/21 00:59:23;;;;;;;4.88;3.10;;;;;;;1.01;89.56;100968.13;4937468;29;20031;-40
2024/01/21 01:01:48;;;;;;;5.97;3.10;;;;;;;0.93;91.12;100971.31;4954759;29;20094;-41
2024/01/21 01:04:14;;;;;;;4.97;3.05;;;;;;;0.93;92.24;100968.69;4955380;29;20023;-41
2024/01/21 01:06:39;;;;;;;5.68;3.20;;;;;;;1.06;92.11;100970.41;4954878;28;20107;-41
2024/01/21 01:09:04;;;;;;;5.28;3.20;;;;;;;0.96;90.25;100971.06;4954987;29;20027;-41
2024/01/21 01:11:30;;;;;;;5.85;3.30;;;;;;;1.00;90.93;100961.19;4955186;29;20055;-41
2024/01/21 01:13:56;;;;;;;5.00;3.22;;;;;;;1.23;91.23;100969.16;4954925;29;20102;-41
2024/01/21 01:16:22;;;;;;;7.60;3.63;;;;;;;1.15;91.17;100964.50;4954520;29;20082;-41
2024/01/21 01:18:51;;;;;;;7.03;3.80;;;;;;;1.44;91.13;100966.75;4955046;29;20034;-41
2024/01/21 01:21:16;;;;;;;6.38;3.90;;;;;;;1.41;90.99;100974.81;4954607;29;20023;-41
2024/01/21 01:23:42;;;;;;;6.53;4.00;;;;;;;1.44;90.97;100966.75;4954762;29;20028;-40
2024/01/21 01:26:07;;;;;;;6.22;3.70;;;;;;;1.53;91.38;100951.13;4954639;29;20035;-40
2024/01/21 01:28:33;;;;;;;6.90;4.10;;;;;;;1.41;90.14;100962.56;4954609;29;20090;-40
2024/01/21 01:30:58;;;;;;;6.97;4.03;;;;;;;1.29;90.80;100969.53;4954561;29;20031;-40
2024/01/21 01:33:26;;;;;;;5.95;3.75;;;;;;;1.29;89.27;100971.31;4954173;29;20086;-40
2024/01/21 01:35:51;;;;;;;5.85;3.60;;;;;;;1.23;90.53;100958.69;4954543;29;20070;-40
2024/01/21 01:38:17;;;;;;;5.25;3.30;;;;;;;1.28;89.27;100964.44;4953599;29;20027;-40
2024/01/21 01:40:42;;;;;;;5.93;3.63;;;;;;;1.28;89.59;100961.81;4954112;29;20034;-40
2024/01/21 01:43:09;;;;;;;7.38;3.70;;;;;;;0.91;91.53;100965.31;4954060;29;20080;-40
2024/01/21 01:45:35;;;;;;;7.07;3.75;;;;;;;0.91;92.31;100972.34;4953691;29;20031;-40
2024/01/21 01:48:02;;;;;;;6.30;4.05;;;;;;;1.12;91.30;100970.81;4953834;29;20078;-40
2024/01/21 01:50:29;;;;;;;7.40;3.83;;;;;;;1.12;90.76;100967.31;4954285;29;20039;-26
2024/01/21 01:52:55;;;;;;;6.70;3.60;;;;;;;1.12;91.21;100975.19;4953994;29;20027;-27
2024/01/21 01:55:21;;;;;;;6.28;3.45;;;;;;;0.95;91.17;100973.78;4954151;29;20027;-25
2024/01/21 01:57:47;;;;;;;6.35;3.97;;;;;;;1.43;86.85;100967.66;4954201;29;20038;-27
2024/01/21 02:00:14;;;;;;;6.25;3.50;;;;;;;1.41;86.01;100974.81;4954437;29;20114;-26
2024/01/21 02:02:40;;;;;;;6.57;3.88;;;;;;;1.80;85.24;100976.25;4953820;29;20503;-26
2024/01/21 02:05:07;;;;;;;7.38;4.40;;;;;;;2.03;83.30;100979.75;4953938;29;20033;-27
2024/01/21 02:07:33;;;;;;;6.95;4.07;;;;;;;1.29;87.30;100972.16;4953901;29;20063;-27
2024/01/21 02:10:00;;;;;;;8.50;4.00;;;;;;;1.88;85.03;100986.16;4953893;29;20027;-27
2024/01/21 02:12:25;;;;;;;8.18;4.43;;;;;;;1.90;83.66;100974.59;4954032;29;20022;-27
2024/01/21 02:14:50;;;;;;;7.78;4.55;;;;;;;1.70;84.23;100980.53;4953982;29;20033;-27
2024/01/21 02:17:16;;;;;;;7.85;4.20;;;;;;;1.70;83.80;100994.50;4945959;29;20461;-27
2024/01/21 02:19:48;;;;;;;6.63;4.32;;;;;;;1.69;83.86;100973.59;4936322;29;20098;-27
2024/01/21 02:22:14;;;;;;;8.25;4.40;;;;;;;1.94;84.68;100989.19;4921200;29;20035;-28
2024/01/21 02:24:39;;;;;;;7.25;3.95;;;;;;;1.90;82.16;100987.72;4953447;29;20102;-27
2024/01/21 02:27:05;;;;;;;7.93;4.50;;;;;;;2.24;81.04;100984.28;4953604;29;20110;-27
2024/01/21 02:29:30;;;;;;;8.35;4.43;;;;;;;2.21;80.21;100992.41;4953623;29;20178;-27
2024/01/21 02:31:57;;;;;;;9.57;4.47;;;;;;;2.01;81.70;100996.56;4953413;29;20570;-27
2024/01/21 02:34:22;;;;;;;7.70;4.72;;;;;;;2.01;82.43;100988.69;4953853;29;20038;-27
2024/01/21 02:36:48;;;;;;;7.97;4.90;;;;;;;1.99;81.73;100985.34;4953470;29;20015;-27
2024/01/21 02:39:14;;;;;;;7.53;4.28;;;;;;;1.84;81.83;100993.44;4953190;29;20479;-27
2024/01/21 02:41:39;;;;;;;9.30;4.88;;;;;;;1.72;83.03;100999.63;4953255;29;20027;-27
2024/01/21 02:44:04;;;;;;;7.85;4.30;;;;;;;1.75;81.32;100988.88;4952938;29;20038;-27
2024/01/21 02:46:30;;;;;;;7.18;4.50;;;;;;;1.58;82.48;100986.69;4952937;29;20388;-27
2024/01/21 02:48:55;;;;;;;8.48;4.70;;;;;;;1.15;83.96;100990.72;4953011;29;20035;-27
2024/01/21 02:51:20;;;;;;;9.02;5.05;;;;;;;1.70;86.77;100988.41;4952928;29;20027;-28
2024/01/21 02:53:46;;;;;;;8.50;5.30;;;;;;;2.14;87.41;100990.25;4952917;29;20126;-27
2024/01/21 02:56:24;;;;;;;7.90;4.90;;;;;;;2.81;85.28;100992.97;4952802;29;20024;-27
2024/01/21 02:58:50;;;;;;;8.02;4.50;;;;;;;3.06;84.24;100997.09;4953003;29;20039;-28
2024/01/21 03:01:17;;;;;;;8.38;4.75;;;;;;;3.22;87.95;101002.78;4952931;29;20027;-28
2024/01/21 03:03:42;;;;;;;7.88;4.50;;;;;;;2.62;85.61;100996.22;4953040;29;20046;-27
2024/01/21 03:06:07;;;;;;;9.38;4.18;;;;;;;1.94;87.55;100994.44;4952832;29;20641;-27
2024/01/21 03:08:33;;;;;;;6.72;3.90;;;;;;;1.49;88.58;101002.19;4952991;29;20023;-27
2024/01/21 03:10:58;;;;;;;7.65;4.07;;;;;;;1.28;90.24;100994.09;4952851;29;20019;-27
2024/01/21 03:13:24;;;;;;;8.48;4.65;;;;;;;1.27;92.01;100996.84;4952865;29;20386;-27
2024/01/21 03:15:49;;;;;;;9.77;4.65;;;;;;;2.02;91.21;101003.47;4952793;29;20110;-27
2024/01/21 03:18:14;;;;;;;8.77;4.63;;;;;;;1.95;90.60;100997.88;4952791;29;20083;-41
2024/01/21 03:20:40;;;;;;;7.43;4.03;;;;;;;1.59;89.32;100999.69;4953021;29;20078;-27
2024/01/21 03:23:05;;;;;;;6.70;3.58;;;;;;;1.29;90.04;100998.38;4952921;29;20027;-27
2024/01/21 03:25:30;;;;;;;8.23;4.85;;;;;;;1.17;91.98;100997.50;4952642;29;20463;-27
2024/01/21 03:27:56;;;;;;;8.07;4.30;;;;;;;1.89;91.81;101007.06;4953291;29;20111;-27
2024/01/21 03:30:21;;;;;;;7.55;4.15;;;;;;;1.74;91.94;101006.41;4953486;28;20027;-41
2024/01/21 03:32:46;;;;;;;6.97;4.35;;;;;;;1.42;91.28;101013.25;4956675;29;20137;-28
2024/01/21 03:35:12;;;;;;;7.63;4.30;;;;;;;1.34;91.88;101017.25;4956767;29;20035;-27
2024/01/21 03:37:38;;;;;;;8.13;4.20;;;;;;;1.13;92.09;101019.66;4956516;29;20020;-27
2024/01/21 03:40:05;;;;;;;7.68;4.30;;;;;;;1.27;92.57;101017.81;4956468;29;20034;-27
2024/01/21 03:42:30;;;;;;;7.07;4.20;;;;;;;1.20;92.68;101019.19;4956546;29;20199;-27
2024/01/21 03:44:56;;;;;;;7.07;4.30;;;;;;;1.19;92.20;101021.00;4956555;29;20429;-28
2024/01/21 03:47:21;;;;;;;7.05;4.05;;;;;;;1.20;92.80;101021.81;4956523;29;20051;-27
2024/01/21 03:49:46;;;;;;;8.35;4.30;;;;;;;1.18;93.08;101027.19;4956145;29;20480;-28
2024/01/21 03:52:12;;;;;;;6.40;4.20;;;;;;;1.15;91.31;101032.66;4956303;29;20038;-28
2024/01/21 03:54:37;;;;;;;7.63;4.15;;;;;;;1.09;91.57;101025.25;4955723;29;20070;-27
2024/01/21 03:57:03;;;;;;;7.70;4.00;;;;;;;1.02;93.27;101027.47;4955787;29;20023;-27
2024/01/21 03:59:28;;;;;;;6.90;4.20;;;;;;;1.02;93.43;101027.47;4956648;29;20097;-28
2024/01/21 04:01:53;;;;;;;6.45;3.90;;;;;;;0.96;92.54;101026.13;4956103;29;20046;-27
2024/01/21 04:04:19;;;;;;;8.43;4.63;;;;;;;1.12;91.92;101028.50;4955634;29;20020;-28
2024/01/21 04:06:44;;;;;;;8.23;4.43;;;;;;;0.80;92.63;101027.31;4955798;29;20030;-27
2024/01/21 04:09:10;;;;;;;9.00;4.88;;;;;;;0.78;94.26;101027.41;4955672;29;20459;-27
2024/01/21 04:11:36;;;;;;;10.77;5.03;;;;;;;0.76;93.12;101027.56;4956231;29;20019;-27
2024/01/21 04:14:01;;;;;;;9.18;5.63;;;;;;;0.80;92.50;101027.31;4955743;29;20502;-27
2024/01/21 04:16:27;;;;;;;11.57;5.28;;;;;;;0.78;93.43;101020.41;4955681;29;20439;-28
2024/01/21 04:18:52;;;;;;;9.43;5.13;;;;;;;0.81;92.46;101021.13;4955459;29;20043;-27
2024/01/21 04:21:17;;;;;;;9.98;5.15;;;;;;;1.00;92.95;101023.28;4955606;29;20030;-27
2024/01/21 04:23:43;;;;;;;9.30;5.20;;;;;;;0.74;92.28;101018.09;4955389;29;20126;-27
2024/01/21 04:26:08;;;;;;;11.68;5.70;;;;;;;0.94;91.69;101019.31;4955712;29;20023;-27
2024/01/21 04:28:36;;;;;;;12.15;6.18;;;;;;;1.00;91.41;101023.28;4955857;29;20027;-27
2024/01/21 04:31:02;;;;;;;9.98;5.65;;;;;;;0.86;92.26;101019.88;4955833;29;20448;-27
2024/01/21 04:33:27;;;;;;;10.52;5.82;;;;;;;0.80;91.02;101022.06;4955408;29;20042;-27
2024/01/21 04:35:53;;;;;;;12.52;6.13;;;;;;;1.10;91.10;101030.34;4956156;29;20033;-28
2024/01/21 04:38:21;;;;;;;11.73;5.82;;;;;;;1.07;89.63;101027.97;4955120;29;20440;-26
2024/01/21 04:40:46;;;;;;;11.02;6.00;;;;;;;1.32;87.90;101019.16;4952177;29;20038;-39
2024/01/21 04:43:12;;;;;;;12.00;6.50;;;;;;;1.63;86.61;101024.75;4936951;29;20035;-26
2024/01/21 04:45:37;;;;;;;10.05;5.95;;;;;;;1.47;86.31;101032.09;4936737;29;20179;-27
2024/01/21 04:48:03;;;;;;;11.48;5.97;;;;;;;1.55;85.29;101038.44;4936298;29;20036;-34
2024/01/21 04:50:29;;;;;;;11.43;6.40;;;;;;;1.82;85.28;101045.22;4945484;29;20031;-27
2024/01/21 04:52:54;;;;;;;10.55;6.25;;;;;;;1.47;85.71;101046.06;4955045;29;20544;-27
2024/01/21 04:55:19;;;;;;;11.75;6.63;;;;;;;1.54;85.31;101044.66;4954898;29;20121;-26
2024/01/21 04:57:46;;;;;;;13.40;6.75;;;;;;;1.83;83.09;101039.03;4950282;29;20042;-28
2024/01/21 05:00:12;;;;;;;14.27;7.70;;;;;;;2.12;81.82;101049.13;4941685;29;20020;-41
2024/01/21 05:02:37;;;;;;;15.88;7.95;;;;;;;2.07;80.87;101041.56;4941329;29;20033;-41
2024/01/21 05:05:03;;;;;;;11.10;6.75;;;;;;;1.70;82.43;101033.84;4935971;29;20110;-40
2024/01/21 05:07:28;;;;;;;13.35;7.03;;;;;;;1.87;81.51;101039.63;4935824;29;20027;-41
2024/01/21 05:09:54;;;;;;;15.02;8.00;;;;;;;1.87;80.67;101037.84;4936378;29;20032;-41
2024/01/21 05:12:19;;;;;;;13.13;6.95;;;;;;;2.05;79.82;101038.22;4936273;29;20473;-41
2024/01/21 05:14:44;;;;;;;15.00;7.70;;;;;;;2.23;78.89;101041.25;4950307;29;20437;-42
2024/01/21 05:17:10;;;;;;;16.98;7.85;;;;;;;2.04;79.00;101038.38;4946156;29;20106;-40
2024/01/21 05:19:36;;;;;;;16.13;8.50;;;;;;;2.02;79.22;101045.50;4939583;29;20039;-40
2024/01/21 05:22:02;;;;;;;14.95;7.80;;;;;;;2.11;79.25;101050.91;4935710;29;20032;-40
2024/01/21 05:24:27;;;;;;;14.45;7.82;;;;;;;2.05;79.24;101050.53;4938545;29;20480;-39
2024/01/21 05:26:53;;;;;;;14.50;7.30;;;;;;;2.03;79.91;101052.44;4935574;29;20473;-39
2024/01/21 05:29:18;;;;;;;17.20;8.73;;;;;;;1.94;80.21;101051.34;4935467;29;20408;-42
2024/01/21 05:31:45;;;;;;;14.25;7.80;;;;;;;1.95;80.18;101047.75;4935017;29;20058;-40
2024/01/21 05:34:10;;;;;;;14.50;7.60;;;;;;;1.82;79.64;101037.34;4935240;29;20114;-40
2024/01/21 05:36:35;;;;;;;15.32;7.68;;;;;;;1.76;79.26;101054.38;4935623;29;20560;-40
2024/01/21 05:39:01;;;;;;;13.90;7.57;;;;;;;1.54;80.84;101063.03;4935424;29;20039;-40
2024/01/21 05:41:28;;;;;;;17.05;7.82;;;;;;;1.63;80.53;101071.16;4942969;29;20083;-42
2024/01/21 05:43:54;;;;;;;12.60;6.97;;;;;;;1.59;80.27;101065.31;4954780;29;20039;-41
2024/01/21 05:46:19;;;;;;;12.25;6.68;;;;;;;0.98;80.34;101071.41;4954402;29;20042;-40
2024/01/21 05:48:44;;;;;;;13.65;7.30;;;;;;;1.11;81.65;101086.28;4954802;29;20030;-43
2024/01/21 05:51:10;;;;;;;14.00;7.60;;;;;;;1.02;81.59;101090.38;4954454;29;20023;-40
2024/01/21 05:53:35;;;;;;;14.98;7.88;;;;;;;1.14;85.51;101091.28;4953168;28;20023;-41
2024/01/21 05:56:00;;;;;;;13.35;7.38;;;;;;;1.78;83.73;101088.41;4954430;29;20520;-41
2024/01/21 05:58:26;;;;;;;17.13;8.18;;;;;;;2.40;81.99;101089.03;4954888;29;20050;-41
2024/01/21 06:00:51;;;;;;;18.33;8.73;;;;;;;2.84;81.55;101092.66;4954585;29;20030;-41
2024/01/21 06:03:16;;;;;;;15.32;8.10;;;;;;;2.65;85.42;101093.25;4954423;29;20023;-41
2024/01/21 06:05:42;;;;;;;15.77;7.97;;;;;;;2.48;84.19;101094.56;4954111;29;20023;-41
2024/01/21 06:08:07;;;;;;;15.40;7.82;;;;;;;2.25;83.30;101094.50;4954400;29;20183;-42
2024/01/21 06:10:32;;;;;;;12.20;6.72;;;;;;;1.55;85.05;101103.22;4954051;29;20388;-43
2024/01/21 06:12:58;;;;;;;15.88;9.15;;;;;;;0.93;87.97;101088.41;4954111;29;20050;-40
2024/01/21 06:15:23;;;;;;;16.50;8.98;;;;;;;0.96;89.88;101099.50;4953820;29;20027;-40
2024/01/21 06:17:51;;;;;;;18.33;10.10;;;;;;;1.74;90.11;101095.66;4953339;29;20030;-40
2024/01/21 06:20:17;;;;;;;19.70;10.57;;;;;;;1.76;88.93;101104.25;4953692;29;20058;-41
2024/01/21 06:22:42;;;;;;;18.30;10.30;;;;;;;1.73;88.30;101107.13;4936752;29;20074;-41
2024/01/21 06:25:08;;;;;;;18.27;9.82;;;;;;;1.63;88.27;101103.47;4954146;29;20055;-40
2024/01/21 06:27:33;;;;;;;20.63;10.00;;;;;;;1.34;89.03;101111.69;4953741;29;20058;-43
2024/01/21 06:30:10;;;;;;;20.75;10.20;;;;;;;1.35;89.63;101109.88;4953684;29;20081;-40
2024/01/21 06:32:35;;;;;;;18.35;9.63;;;;;;;1.38;89.98;101114.94;4953588;29;20054;-41
2024/01/21 06:35:01;;;;;;;17.55;8.95;;;;;;;1.52;90.14;101119.16;4953756;29;20030;-43
2024/01/21 06:37:26;;;;;;;16.80;8.57;;;;;;;1.51;89.27;101128.00;4945632;29;20167;-41
2024/01/21 06:39:51;;;;;;;17.35;8.48;;;;;;;1.45;89.22;101120.59;4944926;29;20763;-40
2024/01/21 06:42:17;;;;;;;18.02;9.43;;;;;;;2.59;96.74;101131.34;4951005;29;20050;-43
2024/01/21 06:44:42;;;;;;;22.05;11.63;;;;;;;2.26;88.83;101129.50;4953821;29;20034;-42
2024/01/21 06:47:07;;;;;;;22.58;11.48;;;;;;;1.85;88.11;101128.19;4953395;29;20111;-40
2024/01/21 06:49:33;;;;;;;19.55;9.52;;;;;;;1.52;88.63;101138.41;4953597;29;20030;-40
2024/01/21 06:51:58;;;;;;;21.33;11.52;;;;;;;1.43;90.04;101136.44;4944116;29;20439;-40
2024/01/21 06:54:24;;;;;;;27.45;13.60;;;;;;;1.54;89.70;101140.88;4943667;29;20030;-40
2024/01/21 06:56:49;;;;;;;22.17;12.23;;;;;;;1.30;88.78;101146.13;4944785;29;20043;-43
2024/01/21 06:59:14;;;;;;;24.15;14.18;;;;;;;1.20;90.80;101143.31;4944345;29;20023;-43
2024/01/21 07:01:40;;;;;;;28.33;14.82;;;;;;;1.27;89.33;101141.91;4942305;29;20040;-43
2024/01/21 07:04:05;;;;;;;27.52;13.80;;;;;;;1.30;89.35;101146.13;4942445;29;20102;-42
2024/01/21 07:06:31;;;;;;;27.45;13.60;;;;;;;1.41;88.77;101140.97;4943244;29;20027;-41
2024/01/21 07:08:56;;;;;;;30.65;15.13;;;;;;;2.29;98.16;101153.75;4928227;29;20027;-41
2024/01/21 07:11:21;;;;;;;24.10;12.88;;;;;;;1.78;87.58;101155.81;4953469;29;20074;-43
2024/01/21 07:13:47;;;;;;;22.58;12.48;;;;;;;1.97;89.36;101157.94;4953307;29;20031;-42
2024/01/21 07:16:12;;;;;;;21.88;11.02;;;;;;;1.83;86.08;101159.78;4953242;29;20027;-40
2024/01/21 07:18:38;;;;;;;26.17;13.50;;;;;;;1.90;92.84;101170.66;4953535;29;20145;-40
2024/01/21 07:21:03;;;;;;;23.00;12.30;;;;;;;2.95;97.17;101171.50;4952700;29;20119;-41
2024/01/21 07:23:29;;;;;;;20.58;11.15;;;;;;;3.56;95.33;101180.81;4952533;29;20098;-41
2024/01/21 07:25:56;;;;;;;19.50;9.80;;;;;;;4.16;93.83;101174.16;4952888;29;20106;-41
2024/01/21 07:28:21;;;;;;;18.42;10.75;;;;;;;4.60;83.17;101177.50;4952824;29;20023;-41
2024/01/21 07:30:46;;;;;;;16.25;9.93;;;;;;;3.39;79.86;101177.72;4952828;29;20509;-41
2024/01/21 07:33:12;;;;;;;18.50;10.68;;;;;;;2.66;82.68;101179.84;4952164;29;20051;-42
2024/01/21 07:35:39;;;;;;;25.42;14.38;;;;;;;2.37;84.51;101187.31;4952380;29;20023;-42
2024/01/21 07:38:05;;;;;;;22.77;12.20;;;;;;;2.43;85.13;101183.41;4952478;29;20019;-43
2024/01/21 07:40:31;;;;;;;22.13;12.13;;;;;;;2.77;85.26;101183.47;4952347;29;20039;-42
2024/01/21 07:42:57;;;;;;;17.65;10.13;;;;;;;2.92;83.34;101180.50;4952361;29;20079;-42
2024/01/21 07:45:22;;;;;;;16.13;10.07;;;;;;;3.08;83.19;101189.81;4952437;29;20031;-41
2024/01/21 07:47:48;;;;;;;17.52;9.80;;;;;;;3.34;83.12;101195.69;4952320;29;20400;-41
2024/01/21 07:50:13;;;;;;;15.18;9.25;;;;;;;3.57;82.56;101199.09;4952582;29;20031;-40
2024/01/21 07:52:39;;;;;;;14.82;9.15;;;;;;;3.81;82.12;101206.84;4952759;29;20024;-40
2024/01/21 07:55:04;;;;;;;15.07;9.60;;;;;;;4.11;79.48;101202.66;4952452;29;20054;-44
2024/01/21 07:57:30;;;;;;;15.73;8.70;;;;;;;4.25;80.82;101202.38;4952403;29;20028;-40
2024/01/21 07:59:55;;;;;;;14.18;8.82;;;;;;;4.53;80.59;101201.88;4941396;29;20056;-40
2024/01/21 08:02:26;;;;;;;15.02;8.55;;;;;;;4.99;77.91;101200.59;4941217;29;20067;-42
2024/01/21 08:04:52;;;;;;;15.25;9.23;;;;;;;5.14;77.38;101201.97;4941195;29;20066;-41
2024/01/21 08:07:17;;;;;;;16.88;9.15;;;;;;;5.16;75.27;101207.06;4942729;29;20027;-40
2024/01/21 08:09:42;;;;;;;13.95;8.57;;;;;;;5.58;74.95;101207.78;4942440;29;20559;-41
2024/01/21 08:12:08;;;;;;;13.65;9.02;;;;;;;6.03;74.59;101209.97;4940014;29;20140;-40
2024/01/21 08:14:33;;;;;;;13.30;9.18;;;;;;;6.17;75.68;101213.19;4943476;29;20034;-44
2024/01/21 08:16:58;;;;;;;15.43;9.20;;;;;;;6.21;72.51;101222.53;4944095;28;20046;-40
2024/01/21 08:19:24;;;;;;;18.95;10.70;;;;;;;5.99;73.30;101224.44;4946068;29;20063;-42
2024/01/21 08:21:49;;;;;;;15.27;9.82;;;;;;;5.99;72.69;101220.97;4944860;29;20500;-40
2024/01/21 08:24:15;;;;;;;17.48;10.18;;;;;;;6.23;71.75;101234.63;4947376;29;20028;-42
2024/01/21 08:26:40;;;;;;;17.85;10.90;;;;;;;6.35;69.58;101231.84;4938338;29;20027;-44
2024/01/21 08:29:05;;;;;;;16.40;9.32;;;;;;;5.83;69.73;101229.41;4936626;29;20062;-41
2024/01/21 08:31:31;;;;;;;16.10;9.30;;;;;;;5.66;71.48;101236.19;4941451;29;20721;-40
2024/01/21 08:33:56;;;;;;;17.80;10.77;;;;;;;5.87;70.51;101231.63;4936223;29;20114;-41
2024/01/21 08:36:22;;;;;;;16.48;10.52;;;;;;;5.85;69.48;101225.66;4944267;29;20086;-40
2024/01/21 08:38:47;;;;;;;13.05;8.43;;;;;;;5.87;69.33;101233.44;4945209;29;20107;-42
2024/01/21 08:41:12;;;;;;;16.30;9.65;;;;;;;5.47;69.69;101231.66;4949125;29;20114;-40
2024/01/21 08:43:38;;;;;;;12.52;7.65;;;;;;;5.46;68.07;101236.13;4951786;29;20071;-40
2024/01/21 08:46:03;;;;;;;11.40;7.07;;;;;;;5.00;69.62;101244.50;4945084;29;20035;-41
2024/01/21 08:48:29;;;;;;;11.88;6.90;;;;;;;5.16;68.78;101249.31;4949975;29;20038;-40
2024/01/21 08:50:55;;;;;;;11.60;6.30;;;;;;;4.64;69.78;101244.84;4955088;29;20119;-39
2024/01/21 08:53:20;;;;;;;8.15;5.65;;;;;;;4.37;68.55;101249.78;4951037;29;20023;-40
2024/01/21 08:55:46;;;;;;;8.50;5.57;;;;;;;4.74;68.19;101251.97;4935875;29;20534;-41
2024/01/21 08:58:12;;;;;;;7.07;5.03;;;;;;;4.63;67.58;101244.97;4952231;29;20022;-40
2024/01/21 09:00:37;;;;;;;9.93;6.38;;;;;;;5.29;68.03;101247.28;4945860;29;20122;-42
2024/01/21 09:03:04;;;;;;;9.02;6.05;;;;;;;5.76;65.93;101244.94;4943901;29;20067;-41
2024/01/21 09:05:30;;;;;;;9.35;5.93;;;;;;;5.34;66.03;101242.44;4943770;29;20019;-40
2024/01/21 09:07:55;;;;;;;9.20;6.03;;;;;;;5.57;66.59;101234.34;4944091;29;20026;-41
2024/01/21 09:10:21;;;;;;;10.40;7.22;;;;;;;5.37;66.20;101228.13;4947865;29;20023;-42
2024/01/21 09:12:46;;;;;;;11.95;7.40;;;;;;;5.55;63.82;101231.00;4949239;29;20107;-43
2024/01/21 09:15:12;;;;;;;8.52;5.70;;;;;;;5.62;65.38;101226.84;4944789;29;20114;-41
2024/01/21 09:17:37;;;;;;;10.45;5.97;;;;;;;5.67;66.77;101233.41;4944815;29;20051;-41
2024/01/21 09:20:03;;;;;;;8.98;5.32;;;;;;;5.54;68.50;101221.38;4944161;29;20480;-41
2024/01/21 09:22:29;;;;;;;13.60;6.90;;;;;;;6.21;86.84;101236.56;4945144;29;20087;-43
2024/01/21 09:24:54;;;;;;;11.65;7.03;;;;;;;6.82;65.65;101234.56;4935409;29;20521;-43
2024/01/21 09:27:20;;;;;;;9.55;6.13;;;;;;;6.19;63.42;101233.22;4935363;29;20055;-40
2024/01/21 09:29:45;;;;;;;9.60;5.95;;;;;;;6.07;63.71;101227.25;4943232;29;20488;-42
2024/01/21 09:32:13;;;;;;;9.20;6.03;;;;;;;4.98;66.50;101231.44;4936442;29;20052;-40
2024/01/21 09:34:43;;;;;;;9.93;5.75;;;;;;;5.01;67.46;101228.56;4937325;29;20118;-40
2024/01/21 09:37:08;;;;;;;7.85;4.97;;;;;;;4.69;66.24;101218.91;4939970;29;20023;-39
2024/01/21 09:39:33;;;;;;;9.38;5.35;;;;;;;4.96;65.48;101225.47;4943486;29;20027;-40
2024/01/21 09:41:59;;;;;;;7.97;4.88;;;;;;;4.92;65.45;101225.88;4943262;29;20175;-41
2024/01/21 09:44:28;;;;;;;7.90;5.22;;;;;;;4.66;66.76;101221.84;4934793;29;20027;-39
2024/01/21 09:46:59;;;;;;;7.93;5.40;;;;;;;5.10;68.01;101211.09;4934569;29;20028;-42
2024/01/21 09:49:24;;;;;;;8.88;5.43;;;;;;;4.65;66.19;101220.16;4934499;29;20114;-40
2024/01/21 09:51:51;;;;;;;9.32;4.95;;;;;;;4.61;66.43;101224.00;4934318;29;20122;-40
2024/01/21 09:54:17;;;;;;;9.93;5.10;;;;;;;4.38;67.73;101227.72;4934270;29;20118;-40
2024/01/21 09:56:43;;;;;;;8.68;4.82;;;;;;;4.66;66.54;101226.25;4934816;29;20099;-42
2024/01/21 09:59:09;;;;;;;7.93;4.25;;;;;;;4.70;66.79;101225.03;4940879;29;20117;-40
2024/01/21 10:01:37;;;;;;;8.07;4.30;;;;;;;4.63;67.77;101216.81;4937198;29;20101;-41
2024/01/21 10:04:02;;;;;;;7.15;4.47;;;;;;;4.90;66.68;101220.72;4954277;29;20024;-43
2024/01/21 10:06:28;;;;;;;8.45;4.80;;;;;;;5.00;67.12;101210.22;4954006;29;20078;-41
2024/01/21 10:09:10;;;;;;;9.40;5.53;;;;;;;4.86;65.69;101214.03;4953787;29;20039;-40
2024/01/21 10:11:35;;;;;;;7.82;4.90;;;;;;;4.48;65.89;101215.44;4953442;29;20094;-40
2024/01/21 10:14:00;;;;;;;8.48;5.15;;;;;;;3.56;68.81;101201.84;4953515;29;20073;-41
2024/01/21 10:16:26;;;;;;;8.88;4.85;;;;;;;4.18;68.60;101209.09;4953417;29;20019;-43
2024/01/21 10:18:51;;;;;;;8.63;5.15;;;;;;;4.40;67.48;101209.97;4953490;29;20023;-43
2024/01/21 10:21:19;;;;;;;11.30;5.07;;;;;;;3.99;67.42;101204.50;4952722;29;20503;-41
2024/01/21 10:23:46;;;;;;;10.00;5.43;;;;;;;4.33;68.29;101207.00;4953107;29;20033;-40
2024/01/21 10:26:11;;;;;;;8.95;5.57;;;;;;;4.75;67.24;101200.91;4953348;29;20030;-41
2024/01/21 10:28:39;;;;;;;11.10;6.30;;;;;;;4.95;65.84;101197.44;4952698;29;20034;-41
2024/01/21 10:31:06;;;;;;;12.10;7.18;;;;;;;4.94;66.57;101197.56;4953159;29;20031;-40
2024/01/21 10:33:31;;;;;;;12.15;6.45;;;;;;;4.69;67.85;101213.66;4953335;29;20151;-40
2024/01/21 10:36:02;;;;;;;9.85;5.75;;;;;;;4.69;66.18;101200.47;4953012;29;20503;-41
2024/01/21 10:38:41;;;;;;;10.65;6.50;;;;;;;4.25;66.88;101214.72;4953235;28;20175;-42
2024/01/21 10:41:09;;;;;;;9.63;5.47;;;;;;;4.12;66.25;101201.72;4952562;29;20557;-41
2024/01/21 10:43:35;;;;;;;9.57;5.97;;;;;;;3.52;68.54;101206.53;4953086;29;20035;-41
2024/01/21 10:46:02;;;;;;;11.10;5.88;;;;;;;4.17;66.91;101199.56;4953205;29;20046;-42
2024/01/21 10:48:29;;;;;;;10.38;6.40;;;;;;;4.24;67.07;101203.31;4952866;29;20264;-43
2024/01/21 10:50:56;;;;;;;13.98;7.70;;;;;;;4.10;68.44;101206.28;4953155;29;20752;-43
2024/01/21 10:53:23;;;;;;;11.63;7.22;;;;;;;4.19;68.24;101208.16;4953411;29;20491;-42
2024/01/21 10:55:51;;;;;;;11.90;6.65;;;;;;;4.30;67.82;101197.56;4953651;29;20034;-44
2024/01/21 10:58:17;;;;;;;11.65;6.93;;;;;;;4.20;67.70;101201.91;4935468;29;20403;-43
2024/01/21 11:00:42;;;;;;;13.52;6.82;;;;;;;4.04;70.00;101202.34;4953271;29;20030;-42
2024/01/21 11:03:23;;;;;;;11.85;6.88;;;;;;;4.35;69.89;101191.91;4953232;29;20507;-40
2024/01/21 11:06:00;;;;;;;10.10;6.28;;;;;;;4.34;68.85;101195.53;4952787;29;20122;-43
2024/01/21 11:08:26;;;;;;;11.70;6.32;;;;;;;4.08;69.16;101195.84;4952716;29;20034;-42
2024/01/21 11:11:11;;;;;;;9.00;5.93;;;;;;;4.05;69.35;101188.19;4952915;29;20027;-41
2024/01/21 11:13:45;;;;;;;10.85;6.47;;;;;;;3.97;68.97;101187.16;4952752;29;20086;-42
2024/01/21 11:16:13;;;;;;;12.13;6.88;;;;;;;3.96;69.43;101181.06;4952644;29;20023;-42
2024/01/21 11:18:42;;;;;;;13.13;6.97;;;;;;;4.39;68.80;101174.03;4952648;29;20031;-41
2024/01/21 11:21:08;;;;;;;10.02;6.32;;;;;;;4.52;67.61;101171.22;4952647;29;20027;-40
2024/01/21 11:23:33;;;;;;;10.18;5.72;;;;;;;3.87;67.38;101161.56;4952616;29;20038;-41